sensor_id;sensor_type;location;lat;lon;timestamp;P1;durP1;ratioP1;P2;durP2;ratioP2
28834;SDS011;15969;51.536;11.884;2022-09-23T00:01:02;3.83;;;2.73;;
28834;SDS011;15969;51.536;11.884;2022-09-23T00:03:33;2.77;;;2.37;;
28834;SDS011;15969;51.536;11.884;2022-09-23T00:06:03;2.33;;;2.03;;
28834;SDS011;15969;51.536;11.884;2022-09-23T00:08:31;3.43;;;2.43;;
28834;SDS011;15969;51.536;11.884;2022-09-23T00:11:02;3.10;;;2.37;;
28834;SDS011;15969;51.536;11.884;2022-09-23T00:13:30;2.57;;;2.37;;
28834;SDS011;15969;51.536;11.884;2022-09-23T00:15:56;2.83;;;2.50;;
28834;SDS011;15969;51.536;11.884;2022-09-23T00:18:26;3.37;;;2.70;;
28834;SDS011;15969;51.536;11.884;2022-09-23T00:20:52;4.40;;;3.07;;
28834;SDS011;15969;51.536;11.884;2022-09-23T00:23:18;3.30;;;2.70;;
28834;SDS011;15969;51.536;11.884;2022-09-23T00:25:43;3.13;;;2.70;;
28834;SDS011;15969;51.536;11.884;2022-09-23T00:28:09;2.50;;;2.27;;
28834;SDS011;15969;51.536;11.884;2022-09-23T00:30:35;2.70;;;2.50;;
28834;SDS011;15969;51.536;11.884;2022-09-23T00:33:00;3.03;;;2.70;;
28834;SDS011;15969;51.536;11.884;2022-09-23T00:35:26;3.13;;;2.77;;
28834;SDS011;15969;51.536;11.884;2022-09-23T00:37:51;3.10;;;2.77;;
28834;SDS011;15969;51.536;11.884;2022-09-23T00:40:17;2.90;;;2.60;;
28834;SDS011;15969;51.536;11.884;2022-09-23T00:42:47;3.40;;;2.90;;
28834;SDS011;15969;51.536;11.884;2022-09-23T00:45:15;2.80;;;2.60;;
28834;SDS011;15969;51.536;11.884;2022-09-23T00:47:45;3.27;;;2.70;;
28834;SDS011;15969;51.536;11.884;2022-09-23T00:53:06;5.60;;;3.87;;
28834;SDS011;15969;51.536;11.884;2022-09-23T00:55:44;2.83;;;2.53;;
28834;SDS011;15969;51.536;11.884;2022-09-23T00:58:14;3.47;;;2.90;;
28834;SDS011;15969;51.536;11.884;2022-09-23T01:00:44;3.30;;;3.00;;
28834;SDS011;15969;51.536;11.884;2022-09-23T01:03:11;4.40;;;3.27;;
28834;SDS011;15969;51.536;11.884;2022-09-23T01:05:37;3.20;;;2.97;;
28834;SDS011;15969;51.536;11.884;2022-09-23T01:08:04;3.60;;;3.20;;
28834;SDS011;15969;51.536;11.884;2022-09-23T01:10:34;3.40;;;3.10;;
28834;SDS011;15969;51.536;11.884;2022-09-23T01:13:31;3.50;;;3.17;;
28834;SDS011;15969;51.536;11.884;2022-09-23T01:16:40;3.97;;;3.57;;
28834;SDS011;15969;51.536;11.884;2022-09-23T01:19:27;3.53;;;3.17;;
28834;SDS011;15969;51.536;11.884;2022-09-23T01:28:03;4.33;;;2.80;;
28834;SDS011;15969;51.536;11.884;2022-09-23T01:31:03;3.57;;;3.27;;
28834;SDS011;15969;51.536;11.884;2022-09-23T01:33:38;5.27;;;3.33;;
28834;SDS011;15969;51.536;11.884;2022-09-23T01:38:51;3.50;;;2.80;;
28834;SDS011;15969;51.536;11.884;2022-09-23T01:41:37;3.70;;;3.40;;
28834;SDS011;15969;51.536;11.884;2022-09-23T01:44:23;3.23;;;2.93;;
28834;SDS011;15969;51.536;11.884;2022-09-23T01:49:44;3.13;;;2.87;;
28834;SDS011;15969;51.536;11.884;2022-09-23T01:52:17;3.70;;;3.17;;
28834;SDS011;15969;51.536;11.884;2022-09-23T01:55:07;3.53;;;3.07;;
28834;SDS011;15969;51.536;11.884;2022-09-23T01:58:11;3.23;;;2.80;;
28834;SDS011;15969;51.536;11.884;2022-09-23T02:01:03;3.37;;;3.07;;
28834;SDS011;15969;51.536;11.884;2022-09-23T02:06:26;4.10;;;3.43;;
28834;SDS011;15969;51.536;11.884;2022-09-23T02:08:59;3.83;;;3.17;;
28834;SDS011;15969;51.536;11.884;2022-09-23T02:11:30;3.50;;;3.20;;
28834;SDS011;15969;51.536;11.884;2022-09-23T02:14:20;3.83;;;3.33;;
28834;SDS011;15969;51.536;11.884;2022-09-23T02:16:50;3.97;;;3.43;;
28834;SDS011;15969;51.536;11.884;2022-09-23T02:19:25;3.90;;;3.60;;
28834;SDS011;15969;51.536;11.884;2022-09-23T02:22:06;3.67;;;3.37;;
28834;SDS011;15969;51.536;11.884;2022-09-23T02:24:39;4.70;;;3.30;;
28834;SDS011;15969;51.536;11.884;2022-09-23T02:32:52;3.80;;;3.30;;
28834;SDS011;15969;51.536;11.884;2022-09-23T02:35:30;3.37;;;3.07;;
28834;SDS011;15969;51.536;11.884;2022-09-23T02:38:28;3.47;;;3.17;;
28834;SDS011;15969;51.536;11.884;2022-09-23T02:43:48;4.10;;;3.70;;
28834;SDS011;15969;51.536;11.884;2022-09-23T02:46:35;3.67;;;3.30;;
28834;SDS011;15969;51.536;11.884;2022-09-23T02:49:03;4.30;;;3.90;;
28834;SDS011;15969;51.536;11.884;2022-09-23T02:51:35;4.30;;;3.90;;
28834;SDS011;15969;51.536;11.884;2022-09-23T02:54:04;4.67;;;3.80;;
28834;SDS011;15969;51.536;11.884;2022-09-23T02:56:34;3.97;;;3.47;;
28834;SDS011;15969;51.536;11.884;2022-09-23T02:59:01;3.90;;;3.60;;
28834;SDS011;15969;51.536;11.884;2022-09-23T03:04:23;5.13;;;3.97;;
28834;SDS011;15969;51.536;11.884;2022-09-23T03:13:07;4.37;;;3.60;;
28834;SDS011;15969;51.536;11.884;2022-09-23T03:21:16;4.50;;;3.77;;
28834;SDS011;15969;51.536;11.884;2022-09-23T03:23:57;3.97;;;3.57;;
28834;SDS011;15969;51.536;11.884;2022-09-23T03:26:28;4.47;;;3.80;;
28834;SDS011;15969;51.536;11.884;2022-09-23T03:28:57;3.60;;;3.30;;
28834;SDS011;15969;51.536;11.884;2022-09-23T03:31:28;5.73;;;4.00;;
28834;SDS011;15969;51.536;11.884;2022-09-23T03:33:56;4.50;;;4.10;;
28834;SDS011;15969;51.536;11.884;2022-09-23T03:36:35;4.10;;;3.70;;
28834;SDS011;15969;51.536;11.884;2022-09-23T03:39:27;4.40;;;4.00;;
28834;SDS011;15969;51.536;11.884;2022-09-23T03:42:10;6.37;;;4.23;;
28834;SDS011;15969;51.536;11.884;2022-09-23T03:44:50;8.63;;;3.97;;
28834;SDS011;15969;51.536;11.884;2022-09-23T03:47:19;4.60;;;3.90;;
28834;SDS011;15969;51.536;11.884;2022-09-23T03:49:47;4.50;;;3.60;;
28834;SDS011;15969;51.536;11.884;2022-09-23T03:52:14;4.47;;;3.93;;
28834;SDS011;15969;51.536;11.884;2022-09-23T03:54:41;5.43;;;4.20;;
28834;SDS011;15969;51.536;11.884;2022-09-23T03:57:06;5.27;;;3.87;;
28834;SDS011;15969;51.536;11.884;2022-09-23T03:59:32;21.13;;;4.60;;
28834;SDS011;15969;51.536;11.884;2022-09-23T04:01:58;5.60;;;3.87;;
28834;SDS011;15969;51.536;11.884;2022-09-23T04:04:25;5.10;;;4.07;;
28834;SDS011;15969;51.536;11.884;2022-09-23T04:06:51;3.77;;;3.47;;
28834;SDS011;15969;51.536;11.884;2022-09-23T04:09:19;3.67;;;3.37;;
28834;SDS011;15969;51.536;11.884;2022-09-23T04:11:46;4.03;;;3.60;;
28834;SDS011;15969;51.536;11.884;2022-09-23T04:14:16;4.03;;;3.63;;
28834;SDS011;15969;51.536;11.884;2022-09-23T04:16:42;5.07;;;4.03;;
28834;SDS011;15969;51.536;11.884;2022-09-23T04:19:09;4.20;;;3.80;;
28834;SDS011;15969;51.536;11.884;2022-09-23T04:21:35;4.40;;;3.93;;
28834;SDS011;15969;51.536;11.884;2022-09-23T04:24:01;4.83;;;4.07;;
28834;SDS011;15969;51.536;11.884;2022-09-23T04:26:27;4.40;;;3.70;;
28834;SDS011;15969;51.536;11.884;2022-09-23T04:28:53;4.23;;;3.90;;
28834;SDS011;15969;51.536;11.884;2022-09-23T04:31:20;4.37;;;3.70;;
28834;SDS011;15969;51.536;11.884;2022-09-23T04:33:52;3.97;;;3.57;;
28834;SDS011;15969;51.536;11.884;2022-09-23T04:36:19;3.93;;;3.63;;
28834;SDS011;15969;51.536;11.884;2022-09-23T04:38:45;4.80;;;3.47;;
28834;SDS011;15969;51.536;11.884;2022-09-23T04:41:13;5.33;;;4.10;;
28834;SDS011;15969;51.536;11.884;2022-09-23T04:43:41;4.73;;;4.33;;
28834;SDS011;15969;51.536;11.884;2022-09-23T04:46:08;5.43;;;4.30;;
28834;SDS011;15969;51.536;11.884;2022-09-23T04:48:37;3.97;;;3.67;;
28834;SDS011;15969;51.536;11.884;2022-09-23T04:51:04;6.70;;;4.10;;
28834;SDS011;15969;51.536;11.884;2022-09-23T04:53:37;3.90;;;3.60;;
28834;SDS011;15969;51.536;11.884;2022-09-23T04:56:05;3.70;;;3.40;;
28834;SDS011;15969;51.536;11.884;2022-09-23T04:58:37;5.10;;;4.60;;
28834;SDS011;15969;51.536;11.884;2022-09-23T05:01:07;4.33;;;3.93;;
28834;SDS011;15969;51.536;11.884;2022-09-23T05:03:39;5.83;;;4.33;;
28834;SDS011;15969;51.536;11.884;2022-09-23T05:06:06;4.87;;;3.80;;
28834;SDS011;15969;51.536;11.884;2022-09-23T05:08:33;5.90;;;3.83;;
28834;SDS011;15969;51.536;11.884;2022-09-23T05:10:59;4.37;;;3.97;;
28834;SDS011;15969;51.536;11.884;2022-09-23T05:13:28;4.70;;;4.30;;
28834;SDS011;15969;51.536;11.884;2022-09-23T05:16:02;7.60;;;4.40;;
28834;SDS011;15969;51.536;11.884;2022-09-23T05:18:32;5.20;;;4.40;;
28834;SDS011;15969;51.536;11.884;2022-09-23T05:20:59;5.33;;;4.83;;
28834;SDS011;15969;51.536;11.884;2022-09-23T05:23:25;4.87;;;4.37;;
28834;SDS011;15969;51.536;11.884;2022-09-23T05:25:55;5.97;;;5.07;;
28834;SDS011;15969;51.536;11.884;2022-09-23T05:28:23;4.97;;;4.47;;
28834;SDS011;15969;51.536;11.884;2022-09-23T05:30:49;5.17;;;4.67;;
28834;SDS011;15969;51.536;11.884;2022-09-23T05:33:14;6.83;;;4.40;;
28834;SDS011;15969;51.536;11.884;2022-09-23T05:35:45;7.70;;;4.70;;
28834;SDS011;15969;51.536;11.884;2022-09-23T05:38:11;4.50;;;4.10;;
28834;SDS011;15969;51.536;11.884;2022-09-23T05:40:36;7.57;;;4.73;;
28834;SDS011;15969;51.536;11.884;2022-09-23T05:43:02;8.60;;;5.07;;
28834;SDS011;15969;51.536;11.884;2022-09-23T05:45:27;4.67;;;4.27;;
28834;SDS011;15969;51.536;11.884;2022-09-23T05:47:53;5.10;;;4.63;;
28834;SDS011;15969;51.536;11.884;2022-09-23T05:50:19;5.40;;;4.90;;
28834;SDS011;15969;51.536;11.884;2022-09-23T05:52:44;6.27;;;4.73;;
28834;SDS011;15969;51.536;11.884;2022-09-23T05:55:10;5.80;;;4.70;;
28834;SDS011;15969;51.536;11.884;2022-09-23T05:57:35;5.00;;;4.50;;
28834;SDS011;15969;51.536;11.884;2022-09-23T06:00:01;5.27;;;4.80;;
28834;SDS011;15969;51.536;11.884;2022-09-23T06:02:27;8.03;;;4.53;;
28834;SDS011;15969;51.536;11.884;2022-09-23T06:04:52;5.97;;;4.90;;
28834;SDS011;15969;51.536;11.884;2022-09-23T06:07:18;5.10;;;4.60;;
28834;SDS011;15969;51.536;11.884;2022-09-23T06:09:44;5.37;;;4.90;;
28834;SDS011;15969;51.536;11.884;2022-09-23T06:12:09;5.50;;;4.50;;
28834;SDS011;15969;51.536;11.884;2022-09-23T06:14:35;4.77;;;4.37;;
28834;SDS011;15969;51.536;11.884;2022-09-23T06:17:00;4.63;;;4.23;;
28834;SDS011;15969;51.536;11.884;2022-09-23T06:19:26;5.17;;;4.73;;
28834;SDS011;15969;51.536;11.884;2022-09-23T06:21:51;5.97;;;4.57;;
28834;SDS011;15969;51.536;11.884;2022-09-23T06:24:17;6.97;;;4.97;;
28834;SDS011;15969;51.536;11.884;2022-09-23T06:26:42;5.23;;;4.73;;
28834;SDS011;15969;51.536;11.884;2022-09-23T06:29:09;5.07;;;4.60;;
28834;SDS011;15969;51.536;11.884;2022-09-23T06:31:36;6.73;;;5.10;;
28834;SDS011;15969;51.536;11.884;2022-09-23T06:34:02;6.13;;;5.53;;
28834;SDS011;15969;51.536;11.884;2022-09-23T06:36:27;5.57;;;5.07;;
28834;SDS011;15969;51.536;11.884;2022-09-23T06:38:53;5.70;;;4.97;;
28834;SDS011;15969;51.536;11.884;2022-09-23T06:41:18;8.33;;;5.70;;
28834;SDS011;15969;51.536;11.884;2022-09-23T06:43:47;6.13;;;5.50;;
28834;SDS011;15969;51.536;11.884;2022-09-23T06:46:14;8.20;;;5.77;;
28834;SDS011;15969;51.536;11.884;2022-09-23T06:48:40;8.73;;;6.07;;
28834;SDS011;15969;51.536;11.884;2022-09-23T06:51:08;8.53;;;7.00;;
28834;SDS011;15969;51.536;11.884;2022-09-23T06:53:37;10.13;;;7.07;;
28834;SDS011;15969;51.536;11.884;2022-09-23T06:56:07;7.90;;;7.10;;
28834;SDS011;15969;51.536;11.884;2022-09-23T06:58:35;7.33;;;6.63;;
28834;SDS011;15969;51.536;11.884;2022-09-23T07:01:06;13.03;;;7.67;;
28834;SDS011;15969;51.536;11.884;2022-09-23T07:03:33;10.90;;;7.67;;
28834;SDS011;15969;51.536;11.884;2022-09-23T07:05:59;8.27;;;7.47;;
28834;SDS011;15969;51.536;11.884;2022-09-23T07:08:26;8.83;;;7.53;;
28834;SDS011;15969;51.536;11.884;2022-09-23T07:10:54;9.90;;;7.67;;
28834;SDS011;15969;51.536;11.884;2022-09-23T07:13:24;11.17;;;8.20;;
28834;SDS011;15969;51.536;11.884;2022-09-23T07:15:50;12.67;;;8.57;;
28834;SDS011;15969;51.536;11.884;2022-09-23T07:18:22;9.97;;;8.07;;
28834;SDS011;15969;51.536;11.884;2022-09-23T07:20:49;9.03;;;8.13;;
28834;SDS011;15969;51.536;11.884;2022-09-23T07:23:19;10.73;;;8.37;;
28834;SDS011;15969;51.536;11.884;2022-09-23T07:25:45;11.50;;;9.13;;
28834;SDS011;15969;51.536;11.884;2022-09-23T07:28:10;9.47;;;8.57;;
28834;SDS011;15969;51.536;11.884;2022-09-23T07:30:37;10.57;;;8.67;;
28834;SDS011;15969;51.536;11.884;2022-09-23T07:33:04;9.47;;;8.47;;
28834;SDS011;15969;51.536;11.884;2022-09-23T07:35:30;12.10;;;8.90;;
28834;SDS011;15969;51.536;11.884;2022-09-23T07:37:56;12.13;;;8.60;;
28834;SDS011;15969;51.536;11.884;2022-09-23T07:40:21;10.63;;;8.93;;
28834;SDS011;15969;51.536;11.884;2022-09-23T07:42:47;13.40;;;8.27;;
28834;SDS011;15969;51.536;11.884;2022-09-23T07:45:13;12.67;;;8.57;;
28834;SDS011;15969;51.536;11.884;2022-09-23T07:47:39;8.87;;;7.97;;
28834;SDS011;15969;51.536;11.884;2022-09-23T07:50:05;12.40;;;8.23;;
28834;SDS011;15969;51.536;11.884;2022-09-23T07:52:34;8.13;;;7.33;;
28834;SDS011;15969;51.536;11.884;2022-09-23T07:55:01;9.97;;;8.50;;
28834;SDS011;15969;51.536;11.884;2022-09-23T07:57:26;9.67;;;7.97;;
28834;SDS011;15969;51.536;11.884;2022-09-23T07:59:52;8.37;;;7.50;;
28834;SDS011;15969;51.536;11.884;2022-09-23T08:02:17;7.67;;;6.87;;
28834;SDS011;15969;51.536;11.884;2022-09-23T08:04:42;9.87;;;7.70;;
28834;SDS011;15969;51.536;11.884;2022-09-23T08:07:08;6.87;;;6.27;;
28834;SDS011;15969;51.536;11.884;2022-09-23T08:09:37;8.07;;;6.50;;
28834;SDS011;15969;51.536;11.884;2022-09-23T08:12:06;7.47;;;6.77;;
28834;SDS011;15969;51.536;11.884;2022-09-23T08:14:32;8.00;;;6.60;;
28834;SDS011;15969;51.536;11.884;2022-09-23T08:16:58;7.50;;;6.70;;
28834;SDS011;15969;51.536;11.884;2022-09-23T08:19:23;6.97;;;6.33;;
28834;SDS011;15969;51.536;11.884;2022-09-23T08:21:49;6.63;;;6.03;;
28834;SDS011;15969;51.536;11.884;2022-09-23T08:24:19;7.07;;;6.43;;
28834;SDS011;15969;51.536;11.884;2022-09-23T08:26:47;6.83;;;6.13;;
28834;SDS011;15969;51.536;11.884;2022-09-23T08:29:14;7.03;;;6.10;;
28834;SDS011;15969;51.536;11.884;2022-09-23T08:31:40;11.00;;;6.50;;
28834;SDS011;15969;51.536;11.884;2022-09-23T08:34:06;7.07;;;6.40;;
28834;SDS011;15969;51.536;11.884;2022-09-23T08:36:32;8.13;;;6.20;;
28834;SDS011;15969;51.536;11.884;2022-09-23T08:38:58;7.00;;;5.80;;
28834;SDS011;15969;51.536;11.884;2022-09-23T08:44:07;6.67;;;6.00;;
28834;SDS011;15969;51.536;11.884;2022-09-23T08:46:48;6.57;;;5.73;;
28834;SDS011;15969;51.536;11.884;2022-09-23T08:49:21;6.87;;;6.20;;
28834;SDS011;15969;51.536;11.884;2022-09-23T08:51:57;6.23;;;4.60;;
28834;SDS011;15969;51.536;11.884;2022-09-23T08:54:27;5.00;;;4.50;;
28834;SDS011;15969;51.536;11.884;2022-09-23T08:56:54;8.13;;;4.93;;
28834;SDS011;15969;51.536;11.884;2022-09-23T08:59:25;5.37;;;3.90;;
28834;SDS011;15969;51.536;11.884;2022-09-23T09:02:04;4.50;;;4.10;;
28834;SDS011;15969;51.536;11.884;2022-09-23T09:04:39;6.67;;;4.43;;
28834;SDS011;15969;51.536;11.884;2022-09-23T09:14:58;4.43;;;3.73;;
28834;SDS011;15969;51.536;11.884;2022-09-23T09:17:34;4.73;;;3.90;;
28834;SDS011;15969;51.536;11.884;2022-09-23T09:23:04;4.30;;;3.30;;
28834;SDS011;15969;51.536;11.884;2022-09-23T09:28:45;2.83;;;2.57;;
28834;SDS011;15969;51.536;11.884;2022-09-23T09:34:08;2.90;;;2.60;;
28834;SDS011;15969;51.536;11.884;2022-09-23T09:39:22;3.40;;;2.43;;
28834;SDS011;15969;51.536;11.884;2022-09-23T09:41:50;2.97;;;2.50;;
28834;SDS011;15969;51.536;11.884;2022-09-23T09:44:20;3.03;;;2.50;;
28834;SDS011;15969;51.536;11.884;2022-09-23T09:46:55;3.70;;;2.50;;
28834;SDS011;15969;51.536;11.884;2022-09-23T09:52:18;5.77;;;2.20;;
28834;SDS011;15969;51.536;11.884;2022-09-23T09:57:37;2.57;;;2.13;;
28834;SDS011;15969;51.536;11.884;2022-09-23T10:00:17;4.03;;;2.20;;
28834;SDS011;15969;51.536;11.884;2022-09-23T10:02:46;3.63;;;2.57;;
28834;SDS011;15969;51.536;11.884;2022-09-23T10:05:24;3.97;;;2.33;;
28834;SDS011;15969;51.536;11.884;2022-09-23T10:07:52;3.10;;;2.20;;
28834;SDS011;15969;51.536;11.884;2022-09-23T10:10:23;3.37;;;2.00;;
28834;SDS011;15969;51.536;11.884;2022-09-23T10:12:49;4.83;;;2.00;;
28834;SDS011;15969;51.536;11.884;2022-09-23T10:15:31;3.00;;;1.93;;
28834;SDS011;15969;51.536;11.884;2022-09-23T10:18:17;3.37;;;2.23;;
28834;SDS011;15969;51.536;11.884;2022-09-23T10:20:44;2.43;;;2.23;;
28834;SDS011;15969;51.536;11.884;2022-09-23T10:23:14;4.40;;;2.30;;
28834;SDS011;15969;51.536;11.884;2022-09-23T10:25:55;3.50;;;2.10;;
28834;SDS011;15969;51.536;11.884;2022-09-23T10:28:37;4.07;;;1.87;;
28834;SDS011;15969;51.536;11.884;2022-09-23T10:31:12;3.43;;;1.93;;
28834;SDS011;15969;51.536;11.884;2022-09-23T10:33:41;3.67;;;1.83;;
28834;SDS011;15969;51.536;11.884;2022-09-23T10:36:12;2.47;;;1.97;;
28834;SDS011;15969;51.536;11.884;2022-09-23T10:38:42;2.83;;;2.00;;
28834;SDS011;15969;51.536;11.884;2022-09-23T10:45:25;2.50;;;1.60;;
28834;SDS011;15969;51.536;11.884;2022-09-23T10:50:46;2.80;;;1.53;;
28834;SDS011;15969;51.536;11.884;2022-09-23T10:53:17;2.90;;;1.70;;
28834;SDS011;15969;51.536;11.884;2022-09-23T10:59:08;3.07;;;1.77;;
28834;SDS011;15969;51.536;11.884;2022-09-23T11:01:37;3.20;;;1.40;;
28834;SDS011;15969;51.536;11.884;2022-09-23T11:14:57;2.07;;;1.53;;
28834;SDS011;15969;51.536;11.884;2022-09-23T11:20:55;2.33;;;2.00;;
28834;SDS011;15969;51.536;11.884;2022-09-23T11:26:25;3.80;;;2.43;;
28834;SDS011;15969;51.536;11.884;2022-09-23T11:29:19;3.40;;;1.63;;
28834;SDS011;15969;51.536;11.884;2022-09-23T11:31:52;2.07;;;1.80;;
28834;SDS011;15969;51.536;11.884;2022-09-23T11:37:17;1.50;;;1.40;;
28834;SDS011;15969;51.536;11.884;2022-09-23T11:40:01;3.53;;;1.90;;
28834;SDS011;15969;51.536;11.884;2022-09-23T11:42:40;2.80;;;1.93;;
28834;SDS011;15969;51.536;11.884;2022-09-23T11:45:17;2.10;;;1.60;;
28834;SDS011;15969;51.536;11.884;2022-09-23T11:47:51;1.70;;;1.60;;
28834;SDS011;15969;51.536;11.884;2022-09-23T11:50:24;3.93;;;1.80;;
28834;SDS011;15969;51.536;11.884;2022-09-23T11:56:06;2.57;;;2.00;;
28834;SDS011;15969;51.536;11.884;2022-09-23T11:58:47;2.60;;;1.60;;
28834;SDS011;15969;51.536;11.884;2022-09-23T12:01:19;4.63;;;1.90;;
28834;SDS011;15969;51.536;11.884;2022-09-23T12:04:02;1.90;;;1.80;;
28834;SDS011;15969;51.536;11.884;2022-09-23T12:06:37;2.20;;;1.97;;
28834;SDS011;15969;51.536;11.884;2022-09-23T12:09:11;7.50;;;2.37;;
28834;SDS011;15969;51.536;11.884;2022-09-23T12:11:47;3.17;;;2.30;;
28834;SDS011;15969;51.536;11.884;2022-09-23T12:14:20;6.20;;;2.00;;
28834;SDS011;15969;51.536;11.884;2022-09-23T12:16:55;2.30;;;2.10;;
28834;SDS011;15969;51.536;11.884;2022-09-23T12:19:32;3.57;;;2.00;;
28834;SDS011;15969;51.536;11.884;2022-09-23T12:27:31;2.10;;;1.90;;
28834;SDS011;15969;51.536;11.884;2022-09-23T12:30:10;1.50;;;1.40;;
28834;SDS011;15969;51.536;11.884;2022-09-23T12:32:48;4.50;;;2.30;;
28834;SDS011;15969;51.536;11.884;2022-09-23T12:35:29;3.27;;;1.80;;
28834;SDS011;15969;51.536;11.884;2022-09-23T12:37:58;1.97;;;1.60;;
28834;SDS011;15969;51.536;11.884;2022-09-23T12:40:27;3.03;;;1.50;;
28834;SDS011;15969;51.536;11.884;2022-09-23T12:42:59;2.30;;;1.20;;
28834;SDS011;15969;51.536;11.884;2022-09-23T12:48:00;4.50;;;1.60;;
28834;SDS011;15969;51.536;11.884;2022-09-23T12:50:50;1.90;;;1.50;;
28834;SDS011;15969;51.536;11.884;2022-09-23T12:56:00;2.47;;;1.50;;
28834;SDS011;15969;51.536;11.884;2022-09-23T13:01:14;1.90;;;1.53;;
28834;SDS011;15969;51.536;11.884;2022-09-23T13:03:48;2.70;;;1.37;;
28834;SDS011;15969;51.536;11.884;2022-09-23T13:06:37;1.87;;;1.40;;
28834;SDS011;15969;51.536;11.884;2022-09-23T13:09:30;1.60;;;1.50;;
28834;SDS011;15969;51.536;11.884;2022-09-23T13:12:05;1.77;;;1.60;;
28834;SDS011;15969;51.536;11.884;2022-09-23T13:14:52;1.30;;;1.20;;
28834;SDS011;15969;51.536;11.884;2022-09-23T13:17:31;2.23;;;1.27;;
28834;SDS011;15969;51.536;11.884;2022-09-23T13:20:30;2.67;;;1.47;;
28834;SDS011;15969;51.536;11.884;2022-09-23T13:23:06;1.73;;;1.30;;
28834;SDS011;15969;51.536;11.884;2022-09-23T13:25:41;1.93;;;1.40;;
28834;SDS011;15969;51.536;11.884;2022-09-23T13:30:56;2.40;;;1.60;;
28834;SDS011;15969;51.536;11.884;2022-09-23T13:33:28;1.50;;;1.40;;
28834;SDS011;15969;51.536;11.884;2022-09-23T13:36:02;1.90;;;1.73;;
28834;SDS011;15969;51.536;11.884;2022-09-23T13:38:39;2.30;;;1.50;;
28834;SDS011;15969;51.536;11.884;2022-09-23T13:41:14;1.73;;;1.63;;
28834;SDS011;15969;51.536;11.884;2022-09-23T13:43:48;2.40;;;1.50;;
28834;SDS011;15969;51.536;11.884;2022-09-23T13:46:18;1.60;;;1.40;;
28834;SDS011;15969;51.536;11.884;2022-09-23T13:48:50;1.60;;;1.20;;
28834;SDS011;15969;51.536;11.884;2022-09-23T13:51:29;1.47;;;1.20;;
28834;SDS011;15969;51.536;11.884;2022-09-23T13:53:58;2.63;;;1.40;;
28834;SDS011;15969;51.536;11.884;2022-09-23T13:56:28;1.50;;;1.40;;
28834;SDS011;15969;51.536;11.884;2022-09-23T13:59:10;2.07;;;1.50;;
28834;SDS011;15969;51.536;11.884;2022-09-23T14:02:02;1.70;;;1.30;;
28834;SDS011;15969;51.536;11.884;2022-09-23T14:04:36;1.20;;;1.10;;
28834;SDS011;15969;51.536;11.884;2022-09-23T14:07:02;1.13;;;1.03;;
28834;SDS011;15969;51.536;11.884;2022-09-23T14:09:28;2.70;;;1.43;;
28834;SDS011;15969;51.536;11.884;2022-09-23T14:11:55;2.93;;;1.60;;
28834;SDS011;15969;51.536;11.884;2022-09-23T14:14:23;1.13;;;1.07;;
28834;SDS011;15969;51.536;11.884;2022-09-23T14:16:52;1.43;;;1.33;;
28834;SDS011;15969;51.536;11.884;2022-09-23T14:19:20;1.50;;;1.33;;
28834;SDS011;15969;51.536;11.884;2022-09-23T14:21:51;3.93;;;1.60;;
28834;SDS011;15969;51.536;11.884;2022-09-23T14:24:22;2.07;;;1.00;;
28834;SDS011;15969;51.536;11.884;2022-09-23T14:29:39;1.97;;;1.20;;
28834;SDS011;15969;51.536;11.884;2022-09-23T14:32:18;1.37;;;1.17;;
28834;SDS011;15969;51.536;11.884;2022-09-23T14:37:31;1.93;;;1.07;;
28834;SDS011;15969;51.536;11.884;2022-09-23T14:40:30;1.53;;;0.83;;
28834;SDS011;15969;51.536;11.884;2022-09-23T14:45:45;1.30;;;1.20;;
28834;SDS011;15969;51.536;11.884;2022-09-23T14:48:20;2.30;;;1.20;;
28834;SDS011;15969;51.536;11.884;2022-09-23T14:51:00;1.20;;;1.10;;
28834;SDS011;15969;51.536;11.884;2022-09-23T14:53:34;1.47;;;1.10;;
28834;SDS011;15969;51.536;11.884;2022-09-23T14:56:11;1.80;;;1.00;;
28834;SDS011;15969;51.536;11.884;2022-09-23T14:59:00;16.73;;;1.60;;
28834;SDS011;15969;51.536;11.884;2022-09-23T15:03:55;2.27;;;1.03;;
28834;SDS011;15969;51.536;11.884;2022-09-23T15:06:36;2.43;;;1.03;;
28834;SDS011;15969;51.536;11.884;2022-09-23T15:09:05;1.53;;;1.20;;
28834;SDS011;15969;51.536;11.884;2022-09-23T15:11:32;1.17;;;1.00;;
28834;SDS011;15969;51.536;11.884;2022-09-23T15:14:00;1.20;;;1.10;;
28834;SDS011;15969;51.536;11.884;2022-09-23T15:16:28;3.10;;;1.50;;
28834;SDS011;15969;51.536;11.884;2022-09-23T15:18:55;1.30;;;1.20;;
28834;SDS011;15969;51.536;11.884;2022-09-23T15:21:24;1.20;;;1.10;;
28834;SDS011;15969;51.536;11.884;2022-09-23T15:24:18;1.27;;;1.17;;
28834;SDS011;15969;51.536;11.884;2022-09-23T15:27:21;2.53;;;1.33;;
28834;SDS011;15969;51.536;11.884;2022-09-23T15:29:53;1.30;;;1.20;;
28834;SDS011;15969;51.536;11.884;2022-09-23T15:32:22;2.80;;;1.30;;
28834;SDS011;15969;51.536;11.884;2022-09-23T15:34:48;2.60;;;1.20;;
28834;SDS011;15969;51.536;11.884;2022-09-23T15:37:15;1.90;;;1.30;;
28834;SDS011;15969;51.536;11.884;2022-09-23T15:39:41;2.70;;;1.10;;
28834;SDS011;15969;51.536;11.884;2022-09-23T15:42:07;1.57;;;1.40;;
28834;SDS011;15969;51.536;11.884;2022-09-23T15:44:34;1.27;;;1.17;;
28834;SDS011;15969;51.536;11.884;2022-09-23T15:47:01;1.17;;;1.00;;
28834;SDS011;15969;51.536;11.884;2022-09-23T15:49:32;1.23;;;1.13;;
28834;SDS011;15969;51.536;11.884;2022-09-23T15:52:03;3.40;;;1.53;;
28834;SDS011;15969;51.536;11.884;2022-09-23T15:54:30;2.00;;;1.50;;
28834;SDS011;15969;51.536;11.884;2022-09-23T15:56:58;2.27;;;1.27;;
28834;SDS011;15969;51.536;11.884;2022-09-23T15:59:27;1.63;;;1.33;;
28834;SDS011;15969;51.536;11.884;2022-09-23T16:01:54;1.27;;;1.17;;
28834;SDS011;15969;51.536;11.884;2022-09-23T16:04:22;9.90;;;4.03;;
28834;SDS011;15969;51.536;11.884;2022-09-23T16:06:50;5.57;;;3.23;;
28834;SDS011;15969;51.536;11.884;2022-09-23T16:09:17;3.47;;;2.30;;
28834;SDS011;15969;51.536;11.884;2022-09-23T16:11:43;6.60;;;3.53;;
28834;SDS011;15969;51.536;11.884;2022-09-23T16:14:12;6.40;;;2.33;;
28834;SDS011;15969;51.536;11.884;2022-09-23T16:16:40;13.97;;;3.00;;
28834;SDS011;15969;51.536;11.884;2022-09-23T16:19:08;3.77;;;2.50;;
28834;SDS011;15969;51.536;11.884;2022-09-23T16:21:36;2.17;;;1.60;;
28834;SDS011;15969;51.536;11.884;2022-09-23T16:24:02;3.77;;;2.67;;
28834;SDS011;15969;51.536;11.884;2022-09-23T16:26:29;7.30;;;2.80;;
28834;SDS011;15969;51.536;11.884;2022-09-23T16:28:58;3.83;;;2.80;;
28834;SDS011;15969;51.536;11.884;2022-09-23T16:31:26;7.80;;;2.17;;
28834;SDS011;15969;51.536;11.884;2022-09-23T16:33:55;3.53;;;1.87;;
28834;SDS011;15969;51.536;11.884;2022-09-23T16:36:28;4.40;;;1.67;;
28834;SDS011;15969;51.536;11.884;2022-09-23T16:39:06;2.20;;;1.77;;
28834;SDS011;15969;51.536;11.884;2022-09-23T16:41:35;1.97;;;1.77;;
28834;SDS011;15969;51.536;11.884;2022-09-23T16:44:01;1.97;;;1.70;;
28834;SDS011;15969;51.536;11.884;2022-09-23T16:46:29;5.10;;;2.00;;
28834;SDS011;15969;51.536;11.884;2022-09-23T16:48:55;2.90;;;2.00;;
28834;SDS011;15969;51.536;11.884;2022-09-23T16:51:25;6.30;;;2.03;;
28834;SDS011;15969;51.536;11.884;2022-09-23T16:53:54;1.63;;;1.53;;
28834;SDS011;15969;51.536;11.884;2022-09-23T16:56:22;3.87;;;1.77;;
28834;SDS011;15969;51.536;11.884;2022-09-23T16:58:51;1.87;;;1.77;;
28834;SDS011;15969;51.536;11.884;2022-09-23T17:01:19;2.17;;;2.03;;
28834;SDS011;15969;51.536;11.884;2022-09-23T17:04:10;2.43;;;1.83;;
28834;SDS011;15969;51.536;11.884;2022-09-23T17:06:44;2.43;;;1.93;;